Flagstaff, AZ

11:50 PM MST on September 28, 2016 (GMT -0700)
University Highlands | | Change Station

Elev 7067 ft 35.17 °N, 111.68 °W | Updated 25 seconds ago

Light Rain
Light Rain
51.1 °F
Feels Like 51.1 °F
N
0.0
Wind Variable Wind from West
Gusts 0.0 mph

Today
High -- | Low -- °F
--% Chance of Precip.
Yesterday
High -- | Low -- °F
Precip. -- in
Pressure 30.18 in
Visibility 10.0 miles
Clouds Few 4700 ft
Scattered Clouds 7000 ft
Mostly Cloudy 10000 ft
Dew Point 51 °F
Humidity 99%
Rainfall in
Snow Depth Not available.
6:19 AM 6:13 PM
Waning Crescent, 3% visible
METAR KFLG 290557Z AUTO 00000KT 10SM -RA FEW047 SCT070 BKN100 10/10 A3038 RMK AO2 RAB53 SLP219 P0000 60013 T01000100 10183 20100 50010
Pressure 30.18 in
Visibility 10.0 miles
Clouds Few 4700 ft
Scattered Clouds 7000 ft
Mostly Cloudy 10000 ft
Dew Point 51 °F
Humidity 99%
Rainfall in
Snow Depth Not available.
6:19 AM 6:13 PM
Waning Crescent, 3% visible
METAR KFLG 290557Z AUTO 00000KT 10SM -RA FEW047 SCT070 BKN100 10/10 A3038 RMK AO2 RAB53 SLP219 P0000 60013 T01000100 10183 20100 50010

10-Day Weather Forecast

Almanac

Astronomy

Sep. 28, 2016 Rise Set
Actual Time
Civil Twilight
Nautical Twilight
Astronomical Twilight
Moon
Length of Visible Light
Length of Day
Tomorrow will be .
, % of the Moon is Illuminated

Today's Extremes

State Highs State Lows

Community

WunderPhotos

Upload Photos

1,942,446 photos uploaded!

WunderBlog® & News

Nearby

Air Quality

  Air Quality AQ Index Pollutant
Not available.

Snow Depth

Station Depth Elevation

Earthquake Activity

City Distance Mag. Time & Date
Minimum magnitude displayed is 2.5.

Coastal Water Temperatures

Place Temperature

Stations

Nearby Weather Stations

Station Location Temp. Windchill Dew Point Humidity Wind Precip. Elev Updated Type
                   

Watches & Warnings

There are currently no watches in effect.